Time;durP1;ratioP1;P1;durP2;ratioP2;P2;SDS_P1;SDS_P2;PMS_P1;PMS_P2;Temp;Humidity;BMP_temperature;BMP_pressure;BME280_temperature;BME280_humidity;BME280_pressure;Samples;Min_cycle;Max_cycle;Signal;HPM_P1;HPM_P2
2023/05/28 00:01:26;;;;;;;8.65;3.75;;;16.10;48.20;;;18.96;36.14;97782.00;5031847;28;20041;-37
2023/05/28 00:03:53;;;;;;;8.65;4.20;;;16.00;48.00;;;18.94;36.24;97786.78;5031949;28;20048;-37
2023/05/28 00:06:21;;;;;;;7.78;3.92;;;16.00;48.30;;;18.92;36.19;97783.47;5032036;28;20048;-37
2023/05/28 00:08:49;;;;;;;7.50;4.50;;;16.00;48.20;;;18.89;36.40;97789.28;5031630;28;20053;-37
2023/05/28 00:11:17;;;;;;;10.65;4.18;;;16.00;48.20;;;18.89;36.42;97781.19;5023499;28;20059;-37
2023/05/28 00:13:44;;;;;;;6.22;3.70;;;16.00;48.20;;;18.88;36.36;97779.50;5031873;28;20036;-37
2023/05/28 00:16:12;;;;;;;8.93;4.20;;;15.90;48.30;;;18.87;36.50;97776.00;5030391;28;20052;-37
2023/05/28 00:18:41;;;;;;;7.60;3.83;;;15.90;48.60;;;18.84;36.52;97779.13;5031469;28;20042;-37
2023/05/28 00:21:08;;;;;;;9.02;4.80;;;15.90;48.70;;;18.83;36.52;97774.78;5031764;28;20056;-37
2023/05/28 00:23:36;;;;;;;6.75;4.53;;;15.90;48.60;;;18.78;36.60;97771.84;5031735;28;20045;-37
2023/05/28 00:26:03;;;;;;;8.38;4.95;;;15.90;48.70;;;18.72;36.77;97766.47;5030052;28;20045;-37
2023/05/28 00:28:31;;;;;;;5.97;3.90;;;15.80;49.10;;;18.66;36.81;97768.94;5030579;28;20512;-37
2023/05/28 00:30:59;;;;;;;7.65;4.28;;;15.70;49.20;;;18.63;36.87;97758.59;5028437;28;20060;-37
2023/05/28 00:33:26;;;;;;;6.85;4.68;;;15.70;49.30;;;18.59;36.88;97762.75;5030122;28;20054;-37
2023/05/28 00:35:55;;;;;;;5.88;4.00;;;15.60;50.20;;;18.50;37.14;97764.84;5030616;28;20501;-37
2023/05/28 00:38:24;;;;;;;6.90;4.15;;;15.50;49.80;;;18.44;37.32;97765.66;5030185;28;20417;-37
2023/05/28 00:40:54;;;;;;;7.07;4.28;;;15.40;50.10;;;18.37;37.50;97761.31;5030075;28;20045;-47
2023/05/28 00:43:23;;;;;;;6.18;4.75;;;15.40;50.40;;;18.30;37.61;97759.47;5030247;28;20487;-45
2023/05/28 00:45:51;;;;;;;10.00;4.40;;;15.20;50.70;;;18.26;37.54;97763.63;5031379;28;20037;-51
2023/05/28 00:48:19;;;;;;;8.80;5.00;;;15.20;50.80;;;18.26;37.55;97760.06;5030245;28;20068;-51
2023/05/28 00:50:47;;;;;;;8.77;4.30;;;15.20;50.60;;;18.25;37.35;97761.94;5031282;28;20489;-46
2023/05/28 00:53:16;;;;;;;6.63;3.95;;;15.20;50.70;;;18.23;37.50;97761.31;5030139;28;20048;-48
2023/05/28 00:55:44;;;;;;;7.07;4.15;;;15.20;50.70;;;18.20;37.36;97758.22;5013352;28;20053;-46
2023/05/28 00:58:13;;;;;;;8.18;4.20;;;15.20;50.80;;;18.18;37.63;97755.72;5030320;28;20053;-45
2023/05/28 01:00:42;;;;;;;9.80;4.75;;;15.20;51.60;;;18.15;37.75;97755.31;5033590;28;20044;-50
2023/05/28 01:03:10;;;;;;;8.18;4.40;;;15.10;50.90;;;18.13;37.92;97760.09;5035082;28;20049;-46
2023/05/28 01:05:38;;;;;;;10.15;4.07;;;15.10;51.10;;;18.12;37.91;97761.94;5034075;28;20493;-46
2023/05/28 01:08:07;;;;;;;8.23;4.70;;;15.10;51.20;;;18.07;37.96;97761.75;5035167;28;20485;-50
2023/05/28 01:10:36;;;;;;;10.30;5.13;;;15.10;51.50;;;18.01;38.34;97752.63;5033566;28;20398;-45
2023/05/28 01:13:08;;;;;;;7.72;4.35;;;15.00;51.70;;;18.00;38.18;97753.63;5033976;28;20112;-45
2023/05/28 01:15:37;;;;;;;7.55;4.55;;;15.00;51.80;;;18.00;38.32;97752.81;5017453;28;20052;-47
2023/05/28 01:18:06;;;;;;;9.15;4.55;;;15.00;51.50;;;17.99;38.15;97754.69;5033403;28;20054;-49
2023/05/28 01:20:34;;;;;;;8.65;4.13;;;15.00;51.70;;;17.93;38.22;97754.66;5034748;28;20042;-49
2023/05/28 01:23:16;;;;;;;8.32;4.30;;;14.90;51.70;;;17.94;38.13;97756.34;5033563;28;20061;-45
2023/05/28 01:25:47;;;;;;;9.23;4.60;;;15.00;52.30;;;17.95;38.10;97758.84;5018047;28;20053;-47
2023/05/28 01:28:14;;;;;;;7.72;4.50;;;15.00;51.50;;;17.94;38.17;97757.16;5017081;28;20045;-46
2023/05/28 01:30:45;;;;;;;10.18;4.85;;;15.00;51.10;;;17.92;38.18;97743.06;5032903;28;20061;-45
2023/05/28 01:33:15;;;;;;;9.80;4.72;;;15.00;51.10;;;17.90;38.16;97737.88;5032789;28;20056;-50
2023/05/28 01:35:43;;;;;;;11.77;5.40;;;15.00;51.20;;;17.90;38.20;97740.56;5017051;28;20054;-49
2023/05/28 01:38:14;;;;;;;9.95;4.97;;;14.90;51.30;;;17.88;38.48;97742.66;5033234;28;20045;-48
2023/05/28 01:40:46;;;;;;;9.80;4.78;;;14.90;51.30;;;17.85;38.09;97748.44;5033199;28;20044;-46
2023/05/28 01:43:14;;;;;;;10.63;4.47;;;14.90;51.40;;;17.84;38.47;97748.66;5017061;28;20053;-47
2023/05/28 01:45:42;;;;;;;7.13;4.88;;;14.90;51.20;;;17.80;38.28;97750.91;5033455;28;20068;-46
2023/05/28 01:48:11;;;;;;;9.43;4.68;;;14.90;51.30;;;17.80;38.52;97742.81;5016402;28;20049;-48
2023/05/28 01:50:39;;;;;;;8.68;5.43;;;14.90;51.50;;;17.77;38.37;97737.84;5017014;28;20053;-50
2023/05/28 01:53:06;;;;;;;6.15;3.83;;;14.90;51.70;;;17.76;38.54;97732.66;5032405;28;20076;-46
2023/05/28 01:55:34;;;;;;;7.63;3.83;;;14.80;51.60;;;17.70;38.41;97745.09;5033355;28;20064;-46
2023/05/28 01:58:02;;;;;;;7.28;4.47;;;14.70;52.80;;;17.63;38.47;97746.94;5034227;28;20045;-47
2023/05/28 02:00:30;;;;;;;8.45;4.65;;;14.70;52.00;;;17.61;38.74;97747.13;5032505;28;20183;-47
2023/05/28 02:02:58;;;;;;;9.98;5.35;;;14.60;52.10;;;17.58;38.55;97746.69;5032782;28;20493;-47
2023/05/28 02:05:26;;;;;;;7.03;4.28;;;14.50;52.50;;;17.51;38.76;97736.75;5032399;28;20060;-49
2023/05/28 02:07:53;;;;;;;9.45;4.32;;;14.50;52.70;;;17.47;38.68;97743.56;5032515;28;20057;-50
2023/05/28 02:10:21;;;;;;;9.73;4.22;;;14.40;52.50;;;17.43;38.94;97736.94;5033593;28;20041;-49
2023/05/28 02:12:48;;;;;;;9.00;3.88;;;14.40;52.70;;;17.40;39.08;97734.66;5033524;28;20048;-50
2023/05/28 02:15:16;;;;;;;6.63;4.80;;;14.40;53.10;;;17.39;39.11;97738.38;5033927;28;20284;-46
2023/05/28 02:17:45;;;;;;;9.23;4.20;;;14.40;52.80;;;17.37;38.94;97737.75;5015798;28;20060;-46
2023/05/28 02:20:13;;;;;;;8.18;4.25;;;14.40;52.90;;;17.38;39.19;97733.19;5032333;28;20046;-47
2023/05/28 02:22:42;;;;;;;7.10;4.70;;;14.40;53.00;;;17.35;38.99;97736.28;5032812;28;20037;-48
2023/05/28 02:25:09;;;;;;;8.27;4.40;;;14.40;52.90;;;17.32;39.08;97734.84;5015673;28;20042;-50
2023/05/28 02:27:38;;;;;;;7.55;4.60;;;14.40;52.90;;;17.30;39.02;97726.13;5016203;28;20048;-47
2023/05/28 02:30:07;;;;;;;8.20;4.38;;;14.30;52.90;;;17.30;39.02;97723.44;5033837;28;20045;-45
2023/05/28 02:32:35;;;;;;;10.18;4.60;;;14.40;52.80;;;17.28;39.35;97723.66;5032716;28;20417;-48
2023/05/28 02:35:03;;;;;;;9.60;4.22;;;14.40;52.80;;;17.27;39.25;97723.84;5033698;28;20056;-51
2023/05/28 02:37:31;;;;;;;8.50;4.53;;;14.30;53.00;;;17.23;39.28;97723.41;5031874;28;20054;-46
2023/05/28 02:39:59;;;;;;;7.18;4.70;;;14.30;53.10;;;17.21;39.42;97725.47;5032086;28;20053;-47
2023/05/28 02:42:27;;;;;;;12.02;4.85;;;14.30;53.10;;;17.20;39.53;97721.13;5007475;28;20041;-47
2023/05/28 02:44:54;;;;;;;6.97;4.78;;;14.30;53.20;;;17.17;39.39;97724.22;5033083;28;20398;-49
2023/05/28 02:47:22;;;;;;;9.50;4.07;;;14.30;53.20;;;17.13;39.46;97726.47;5032609;28;20520;-47
2023/05/28 02:49:51;;;;;;;6.55;4.30;;;14.20;53.50;;;17.11;39.84;97719.66;5031983;28;20544;-49
2023/05/28 02:52:19;;;;;;;8.95;4.63;;;14.20;53.60;;;17.07;39.53;97727.28;5031399;28;20050;-48
2023/05/28 02:54:47;;;;;;;8.35;4.28;;;14.20;53.70;;;17.06;39.70;97722.09;5031708;28;20493;-49
2023/05/28 02:57:15;;;;;;;8.10;4.78;;;14.10;53.60;;;17.04;39.87;97724.16;5032519;28;20056;-48
2023/05/28 02:59:42;;;;;;;9.68;4.60;;;14.20;53.60;;;17.03;39.73;97719.84;5033154;28;20048;-48
2023/05/28 03:02:10;;;;;;;8.25;4.30;;;14.20;53.70;;;17.02;39.69;97720.84;5031304;28;20049;-49
2023/05/28 03:04:38;;;;;;;7.85;4.45;;;14.20;53.60;;;17.00;39.83;97728.28;5032028;28;20046;-48
2023/05/28 03:07:07;;;;;;;8.07;5.63;;;14.10;53.80;;;16.97;39.95;97724.16;5031165;28;20411;-48
2023/05/28 03:09:37;;;;;;;7.63;4.30;;;14.10;53.90;;;16.94;40.07;97727.22;5015333;28;20413;-50
2023/05/28 03:12:05;;;;;;;9.23;4.75;;;14.00;53.90;;;16.91;39.85;97733.84;5014990;28;20045;-49
2023/05/28 03:14:34;;;;;;;6.40;4.03;;;14.00;54.70;;;16.88;39.97;97731.53;5032525;28;20055;-47
2023/05/28 03:17:01;;;;;;;7.30;4.00;;;14.00;54.30;;;16.85;40.10;97742.72;5031195;28;20060;-48
2023/05/28 03:19:30;;;;;;;7.78;4.47;;;13.90;54.30;;;16.82;40.07;97740.41;5031360;28;20044;-49
2023/05/28 03:21:58;;;;;;;9.15;4.47;;;13.90;54.30;;;16.79;40.04;97737.25;5030827;28;20509;-48
2023/05/28 03:24:32;;;;;;;;;;;13.90;54.50;;;16.83;39.64;97750.16;5024735;28;20042;-49
2023/05/28 03:27:01;;;;;;;9.45;4.35;;;13.80;56.10;;;16.75;40.09;97742.22;5031637;28;20407;-47
2023/05/28 03:29:30;;;;;;;10.15;4.90;;;13.70;55.00;;;16.68;40.06;97746.72;5022641;28;20052;-49
2023/05/28 03:32:29;;;;;;;11.02;4.65;;;13.70;55.20;;;16.66;40.15;97736.16;5028177;28;20049;-49
2023/05/28 03:34:58;;;;;;;10.07;4.68;;;13.70;55.20;;;16.65;40.47;97739.03;5033296;28;20057;-48
2023/05/28 03:37:30;;;;;;;7.32;4.50;;;13.70;55.20;;;16.64;40.35;97735.53;5008059;28;20539;-47
2023/05/28 03:39:59;;;;;;;6.45;4.60;;;13.70;55.30;;;16.61;40.63;97733.22;5031326;28;20060;-50
2023/05/28 03:42:26;;;;;;;8.02;4.63;;;13.60;55.50;;;16.58;40.65;97735.50;5031376;28;20048;-48
2023/05/28 03:44:54;;;;;;;6.78;4.40;;;13.60;55.70;;;16.57;40.96;97736.50;5031068;28;20042;-47
2023/05/28 03:47:24;;;;;;;7.97;4.55;;;13.60;55.70;;;16.53;40.97;97736.06;5030419;28;20064;-48
2023/05/28 03:49:53;;;;;;;8.63;4.25;;;13.50;55.80;;;16.48;41.10;97728.59;5032383;28;20038;-47
2023/05/28 03:52:21;;;;;;;7.80;4.68;;;13.50;56.20;;;16.47;41.22;97737.69;5031997;28;20056;-49
2023/05/28 03:54:52;;;;;;;8.40;4.15;;;13.50;56.40;;;16.48;41.19;97730.47;5030572;28;20519;-49
2023/05/28 03:57:20;;;;;;;5.93;4.10;;;13.50;56.40;;;16.49;41.22;97732.13;5030744;28;20060;-48
2023/05/28 03:59:48;;;;;;;9.30;4.35;;;13.50;56.50;;;16.42;41.38;97732.09;5022478;28;20050;-48
2023/05/28 04:02:16;;;;;;;9.00;4.97;;;13.40;57.10;;;16.42;41.37;97733.94;5029979;28;20417;-47
2023/05/28 04:04:45;;;;;;;7.32;4.63;;;13.40;56.90;;;16.40;41.32;97733.28;5030903;28;20053;-46
2023/05/28 04:07:13;;;;;;;9.88;4.53;;;13.40;57.00;;;16.35;41.57;97725.84;5030256;28;20057;-46
2023/05/28 04:09:40;;;;;;;8.88;4.50;;;13.30;57.20;;;16.36;41.58;97737.41;5031010;28;20048;-48
2023/05/28 04:12:08;;;;;;;6.50;5.30;;;13.30;57.80;;;16.37;41.65;97739.91;5030423;28;20045;-49
2023/05/28 04:14:36;;;;;;;10.18;5.15;;;13.40;56.80;;;16.35;41.87;97731.19;5031074;28;20041;-47
2023/05/28 04:17:04;;;;;;;7.32;4.05;;;13.40;57.20;;;16.33;41.71;97726.03;5030892;28;20068;-47
2023/05/28 04:19:32;;;;;;;8.98;4.45;;;13.40;57.20;;;16.35;41.77;97728.50;5022650;28;20398;-48
2023/05/28 04:22:01;;;;;;;10.90;5.10;;;13.40;57.20;;;16.38;41.88;97735.34;5029565;28;20064;-51
2023/05/28 04:24:28;;;;;;;7.70;4.38;;;13.50;57.20;;;16.40;41.82;97733.28;5031981;28;20045;-46
2023/05/28 04:26:57;;;;;;;9.77;4.50;;;13.50;57.10;;;16.42;41.70;97736.59;5030269;28;20045;-46
2023/05/28 04:29:28;;;;;;;10.23;4.57;;;13.50;57.00;;;16.44;41.52;97738.09;5030249;28;20072;-50
2023/05/28 04:31:59;;;;;;;7.90;4.47;;;13.60;56.50;;;16.45;41.51;97734.38;5030959;28;20513;-46
2023/05/28 04:34:27;;;;;;;6.28;4.25;;;13.60;56.50;;;16.44;41.52;97735.41;5030921;28;20108;-47
2023/05/28 04:36:56;;;;;;;9.93;4.88;;;13.50;56.50;;;16.43;41.59;97738.28;5029730;28;20049;-48
2023/05/28 04:39:24;;;;;;;6.35;4.28;;;13.40;56.70;;;16.42;41.55;97731.22;5014042;28;20053;-47
2023/05/28 04:41:53;;;;;;;7.82;4.20;;;13.40;57.40;;;16.44;41.67;97742.63;5030299;28;20049;-46
2023/05/28 04:44:25;;;;;;;7.18;4.07;;;13.50;56.80;;;16.49;41.82;97741.00;5029850;28;20072;-48
2023/05/28 04:46:53;;;;;;;9.23;4.70;;;13.60;56.70;;;16.56;41.61;97740.25;5014211;28;20050;-48
2023/05/28 04:49:21;;;;;;;8.95;4.90;;;13.70;56.50;;;16.61;41.48;97748.53;5031386;28;20049;-48
2023/05/28 04:51:49;;;;;;;5.38;4.10;;;13.80;55.90;;;16.66;41.39;97752.28;5029547;28;20045;-46
2023/05/28 04:54:16;;;;;;;10.55;5.82;;;13.90;56.50;;;16.71;41.21;97749.00;5013345;28;20045;-48
2023/05/28 04:56:45;;;;;;;8.52;4.72;;;14.00;55.50;;;16.74;41.28;97752.13;5029562;28;20528;-50
2023/05/28 04:59:13;;;;;;;8.82;5.22;;;14.00;55.40;;;16.77;41.26;97750.06;5029658;28;20049;-47
2023/05/28 05:01:42;;;;;;;7.18;4.38;;;14.00;55.40;;;16.79;41.44;97754.22;5029389;28;20052;-48
2023/05/28 05:04:10;;;;;;;7.50;5.03;;;14.00;55.50;;;16.81;41.28;97751.31;5031316;28;20505;-47
2023/05/28 05:06:38;;;;;;;8.40;4.63;;;13.90;55.70;;;16.85;41.33;97758.84;5030554;28;20037;-48
2023/05/28 05:09:05;;;;;;;12.07;4.63;;;14.00;55.90;;;16.89;40.99;97760.09;5030348;28;20049;-46
2023/05/28 05:11:33;;;;;;;11.60;4.95;;;14.10;55.70;;;16.94;41.27;97754.13;5029568;28;20049;-46
2023/05/28 05:14:03;;;;;;;10.70;5.72;;;14.10;55.60;;;17.00;41.00;97755.19;5029191;28;20049;-46
2023/05/28 05:16:31;;;;;;;6.57;4.90;;;14.20;55.00;;;17.04;40.97;97754.59;5029397;28;20513;-47
2023/05/28 05:18:59;;;;;;;8.45;4.03;;;14.30;54.80;;;17.11;40.82;97754.63;5029430;28;20061;-47
2023/05/28 05:21:26;;;;;;;8.98;4.82;;;14.40;54.60;;;17.16;40.73;97746.78;5030007;28;20425;-47
2023/05/28 05:23:54;;;;;;;7.53;4.90;;;14.50;54.30;;;17.20;40.67;97752.59;5029418;28;20528;-48
2023/05/28 05:26:22;;;;;;;11.52;5.40;;;14.50;54.40;;;17.24;40.67;97757.38;5029669;28;20061;-49
2023/05/28 05:28:50;;;;;;;7.38;5.88;;;14.50;54.20;;;17.29;40.78;97751.38;5029506;28;20405;-48
2023/05/28 05:31:18;;;;;;;10.82;4.95;;;14.60;54.30;;;17.32;40.74;97757.19;5029685;28;20056;-47
2023/05/28 05:33:45;;;;;;;7.63;5.40;;;14.60;54.50;;;17.35;40.94;97752.44;5031135;28;20041;-47
2023/05/28 05:36:32;;;;;;;8.02;4.82;;;14.60;54.50;;;17.35;40.96;97745.22;5031325;28;20052;-46
2023/05/28 05:39:05;;;;;;;;;;;14.60;54.80;;;17.48;40.62;97753.28;5032729;28;20053;-48
2023/05/28 05:41:59;;;;;;;8.60;4.95;;;14.60;56.30;;;17.52;40.89;97751.03;5025925;28;20315;-47
2023/05/28 05:44:30;;;;;;;9.50;5.28;;;14.60;55.20;;;17.48;40.83;97749.78;5031380;28;20045;-48
2023/05/28 05:46:59;;;;;;;7.35;4.68;;;14.70;55.40;;;17.50;40.78;97747.72;5033355;28;20045;-48
2023/05/28 05:49:27;;;;;;;7.43;5.38;;;14.80;54.80;;;17.52;41.02;97756.41;5033466;28;20042;-50
2023/05/28 05:51:55;;;;;;;16.35;6.05;;;14.80;54.70;;;17.55;41.00;97752.50;5033253;28;20052;-49
2023/05/28 05:54:22;;;;;;;7.85;5.28;;;14.90;54.90;;;17.57;41.24;97756.66;5032867;28;20513;-48
2023/05/28 05:56:52;;;;;;;9.65;5.60;;;14.80;55.10;;;17.62;41.18;97758.72;5032749;28;20049;-48
2023/05/28 05:59:21;;;;;;;8.82;4.72;;;14.90;55.10;;;17.66;40.92;97755.44;5033401;28;20053;-47
2023/05/28 06:01:49;;;;;;;10.07;5.03;;;14.90;54.70;;;17.70;40.83;97762.06;5033103;28;20049;-49
2023/05/28 06:04:17;;;;;;;9.05;5.28;;;15.00;54.50;;;17.77;40.94;97763.94;5032802;28;20048;-47
2023/05/28 06:07:06;;;;;;;7.50;4.65;;;15.10;54.70;;;17.79;40.74;97762.69;5033270;28;20041;-50
2023/05/28 06:10:06;;;;;;;11.48;5.60;;;15.10;54.50;;;17.84;40.41;97768.34;5044108;28;20421;-48
2023/05/28 06:12:36;;;;;;;8.73;5.00;;;15.10;54.00;;;17.85;40.49;97769.16;5032533;28;20045;-50
2023/05/28 06:15:06;;;;;;;8.40;4.22;;;15.10;53.90;;;17.88;40.55;97763.38;5032732;28;20057;-49
2023/05/28 06:17:33;;;;;;;9.85;4.97;;;15.20;53.80;;;17.93;40.26;97763.56;5032169;28;20421;-47
2023/05/28 06:20:04;;;;;;;7.88;4.65;;;15.30;53.50;;;17.98;40.39;97762.97;5032164;28;20046;-50
2023/05/28 06:22:32;;;;;;;8.57;5.72;;;15.30;53.60;;;18.00;40.28;97764.41;5032451;28;20468;-51
2023/05/28 06:25:01;;;;;;;8.70;5.15;;;15.40;53.70;;;18.06;40.43;97762.75;5032808;28;20038;-48
2023/05/28 06:27:29;;;;;;;8.48;5.15;;;15.40;53.80;;;18.10;40.50;97762.13;5032821;28;20052;-51
2023/05/28 06:29:56;;;;;;;10.85;4.90;;;15.50;54.00;;;18.13;40.49;97763.59;5032205;28;20120;-50
2023/05/28 06:32:24;;;;;;;7.15;5.00;;;15.40;53.90;;;18.17;40.43;97769.41;5029078;28;20062;-46
2023/05/28 06:34:51;;;;;;;11.00;5.93;;;15.40;54.00;;;18.23;40.43;97764.00;5033377;28;20048;-49
2023/05/28 06:37:21;;;;;;;11.70;5.80;;;15.50;54.00;;;18.29;40.39;97759.66;5033432;28;20050;-50
2023/05/28 06:39:48;;;;;;;8.75;5.45;;;15.70;53.80;;;18.34;39.93;97769.81;5024982;28;20049;-51
2023/05/28 06:42:16;;;;;;;10.32;4.97;;;15.70;53.00;;;18.35;40.28;97768.78;5031900;28;20041;-49
2023/05/28 06:44:59;;;;;;;11.55;5.18;;;15.80;53.30;;;18.44;40.29;97764.84;5016275;28;20052;-48
2023/05/28 06:47:27;;;;;;;10.13;5.13;;;15.80;53.30;;;18.46;40.25;97768.16;5029287;28;20497;-47
2023/05/28 06:49:55;;;;;;;9.45;6.03;;;15.80;53.30;;;18.48;40.22;97764.22;5019816;28;20498;-49
2023/05/28 06:52:24;;;;;;;9.57;4.90;;;15.90;53.10;;;18.55;40.07;97769.59;5028521;28;20049;-51
2023/05/28 06:54:52;;;;;;;10.02;5.53;;;16.00;53.00;;;18.59;40.13;97770.84;5013445;28;20056;-46
2023/05/28 06:57:21;;;;;;;8.73;4.82;;;16.10;53.00;;;18.63;40.24;97768.53;5029470;28;20501;-47
2023/05/28 07:00:27;;;;;;;9.82;5.03;;;16.10;53.10;;;18.73;39.80;97768.97;5031315;28;20060;-46
2023/05/28 07:03:16;;;;;;;7.32;4.68;;;16.20;52.70;;;18.81;39.75;97773.34;5031782;28;20080;-48
2023/05/28 07:05:57;;;;;;;7.60;5.13;;;16.20;52.50;;;18.90;39.39;97777.44;5031764;28;20033;-48
2023/05/28 07:08:26;;;;;;;9.68;5.13;;;16.30;52.00;;;18.95;39.41;97782.22;5030471;28;20092;-50
2023/05/28 07:10:54;;;;;;;8.10;5.20;;;16.40;51.90;;;18.97;39.42;97778.25;5030510;28;20046;-52
2023/05/28 07:13:22;;;;;;;11.25;5.07;;;16.40;51.90;;;19.01;39.44;97787.59;5030071;28;20536;-48
2023/05/28 07:15:50;;;;;;;7.55;4.55;;;16.50;51.80;;;19.03;39.11;97780.09;5030665;28;20045;-52
2023/05/28 07:18:18;;;;;;;7.93;5.55;;;16.50;51.40;;;19.04;39.19;97773.69;5029946;28;20535;-47
2023/05/28 07:20:45;;;;;;;7.63;5.00;;;16.60;51.40;;;19.08;39.17;97776.78;5031594;28;20045;-47
2023/05/28 07:23:20;;;;;;;7.63;4.75;;;16.60;51.20;;;19.14;39.07;97778.63;5030555;28;20049;-48
2023/05/28 07:25:49;;;;;;;11.20;5.45;;;16.70;51.20;;;19.20;39.25;97775.06;5013884;28;20493;-47
2023/05/28 07:28:17;;;;;;;9.20;5.50;;;16.70;51.30;;;19.27;39.16;97783.97;5029979;28;20054;-47
2023/05/28 07:30:45;;;;;;;8.82;5.13;;;16.80;51.20;;;19.33;39.14;97785.00;5029994;28;20041;-48
2023/05/28 07:33:12;;;;;;;10.23;5.70;;;16.90;51.30;;;19.42;38.67;97785.56;5030180;28;20041;-46
2023/05/28 07:35:42;;;;;;;10.80;5.35;;;16.90;50.80;;;19.49;38.70;97789.09;5030089;28;20042;-50
2023/05/28 07:38:11;;;;;;;10.10;5.43;;;17.00;50.80;;;19.54;38.87;97789.28;5029527;28;20056;-50
2023/05/28 07:40:39;;;;;;;10.07;6.03;;;17.00;51.00;;;19.58;38.44;97784.25;5029778;28;20052;-50
2023/05/28 07:43:18;;;;;;;8.18;4.45;;;17.10;50.40;;;19.62;38.63;97785.50;5029877;28;20045;-48
2023/05/28 07:45:45;;;;;;;8.02;4.65;;;17.10;50.20;;;19.64;38.52;97778.84;5029806;28;20045;-46
2023/05/28 07:48:13;;;;;;;8.45;5.55;;;17.20;50.20;;;19.70;38.60;97779.84;5031150;28;20037;-48
2023/05/28 07:50:47;;;;;;;9.25;4.63;;;17.30;50.60;;;19.80;38.38;97782.09;5023169;28;20030;-46
2023/05/28 07:53:29;;;;;;;11.55;5.82;;;17.40;50.30;;;19.89;38.14;97782.66;5029440;28;20049;-50
2023/05/28 07:55:57;;;;;;;6.10;4.22;;;17.40;49.90;;;19.92;38.16;97783.06;5029221;28;20045;-46
2023/05/28 07:58:25;;;;;;;8.40;4.68;;;17.40;49.80;;;19.94;37.88;97780.97;5029469;28;20049;-49
2023/05/28 08:00:53;;;;;;;9.60;5.88;;;17.50;49.40;;;19.97;37.88;97782.41;5010355;28;20417;-49
2023/05/28 08:03:22;;;;;;;9.00;4.93;;;17.60;49.20;;;20.02;37.92;97785.28;5026567;28;20050;-48
2023/05/28 08:05:50;;;;;;;6.75;4.75;;;17.60;49.40;;;20.11;37.77;97783.16;5029597;28;20041;-48
2023/05/28 08:08:18;;;;;;;8.80;4.82;;;17.70;49.40;;;20.17;37.64;97782.28;5028729;28;20046;-49
2023/05/28 08:10:45;;;;;;;12.57;6.32;;;17.70;48.70;;;20.22;37.40;97785.97;5022981;28;20045;-51
2023/05/28 08:13:14;;;;;;;12.98;5.68;;;17.80;48.60;;;20.25;37.72;97782.81;5030304;28;20045;-46
2023/05/28 08:15:42;;;;;;;5.63;4.63;;;17.80;48.70;;;20.31;37.38;97774.88;5030397;28;20513;-47
2023/05/28 08:18:11;;;;;;;11.05;4.72;;;17.90;48.80;;;20.37;37.33;97771.28;5030517;28;20053;-48
2023/05/28 08:20:39;;;;;;;8.75;5.25;;;17.90;48.40;;;20.44;36.78;97772.88;5029996;28;20425;-46
2023/05/28 08:23:15;;;;;;;9.00;5.20;;;18.00;47.80;;;20.49;36.83;97771.41;5030227;28;20053;-48
2023/05/28 08:25:43;;;;;;;9.35;5.00;;;18.00;48.00;;;20.53;37.05;97769.91;5029863;28;20045;-51
2023/05/28 08:28:18;;;;;;;7.43;5.05;;;18.10;48.10;;;20.58;36.97;97770.88;5029941;28;20053;-48
2023/05/28 08:30:47;;;;;;;7.28;5.75;;;18.20;48.10;;;20.65;36.79;97773.56;5022556;28;20052;-49
2023/05/28 08:33:26;;;;;;;9.93;5.32;;;18.20;47.80;;;20.74;36.94;97766.00;5030707;28;20062;-50
2023/05/28 08:35:54;;;;;;;8.02;5.15;;;18.30;47.40;;;20.79;36.44;97772.38;5013446;28;20299;-49
2023/05/28 08:38:22;;;;;;;7.57;5.75;;;18.40;47.30;;;20.81;35.92;97764.88;5029620;28;20049;-51
2023/05/28 08:40:54;;;;;;;9.43;4.97;;;18.40;46.50;;;20.87;36.32;97763.16;5031211;28;20033;-51
2023/05/28 08:43:23;;;;;;;9.20;4.37;;;18.40;46.40;;;20.94;36.27;97754.97;5030247;28;20048;-51
2023/05/28 08:45:52;;;;;;;12.25;4.75;;;18.50;46.50;;;20.95;35.74;97759.31;5029909;28;20037;-52
2023/05/28 08:48:32;;;;;;;6.13;3.83;;;18.60;46.50;;;21.00;36.26;97752.19;5029898;28;20545;-48
2023/05/28 08:51:00;;;;;;;;;;;18.60;46.20;;;21.19;35.51;97752.16;5030744;28;20056;-50
2023/05/28 08:53:43;;;;;;;6.90;3.97;;;18.70;44.40;;;21.21;35.73;97752.78;5014596;28;19928;-47
2023/05/28 08:56:11;;;;;;;10.30;4.60;;;18.70;46.00;;;21.24;35.51;97752.31;5014346;28;20049;-47
2023/05/28 08:58:40;;;;;;;7.55;4.18;;;18.80;45.60;;;21.31;35.46;97744.94;5028661;28;20053;-51
2023/05/28 09:01:08;;;;;;;8.88;4.35;;;18.90;45.40;;;21.35;34.91;97746.16;5013084;28;20038;-47
2023/05/28 09:03:45;;;;;;;8.52;4.85;;;18.90;44.90;;;21.42;35.16;97741.47;5030260;28;20046;-50
2023/05/28 09:06:31;;;;;;;10.45;4.63;;;19.00;45.00;;;21.48;34.87;97749.75;5015580;28;20056;-47
2023/05/28 09:09:00;;;;;;;10.83;4.63;;;19.10;44.60;;;21.52;35.04;97742.81;5028821;28;20500;-49
2023/05/28 09:11:42;;;;;;;11.63;5.63;;;19.10;45.20;;;21.54;35.09;97741.56;5029614;28;20338;-49
2023/05/28 09:14:13;;;;;;;7.55;4.82;;;19.20;44.60;;;21.54;34.75;97741.56;5013731;28;20049;-45
2023/05/28 09:16:42;;;;;;;7.32;5.03;;;19.10;44.10;;;21.54;34.76;97738.84;5029166;28;20049;-47
2023/05/28 09:19:16;;;;;;;8.98;6.13;;;19.20;44.80;;;21.59;34.84;97733.56;5031159;28;20053;-46
2023/05/28 09:21:59;;;;;;;13.00;5.30;;;19.30;44.80;;;21.69;35.15;97730.28;5033789;28;20049;-46
2023/05/28 09:24:33;;;;;;;8.65;4.35;;;19.30;44.10;;;21.77;34.79;97727.28;5033358;28;20075;-46
2023/05/28 09:27:25;;;;;;;6.80;4.22;;;19.40;44.90;;;21.87;34.60;97734.00;5032955;28;20527;-47
2023/05/28 09:29:54;;;;;;;5.90;4.60;;;19.40;44.60;;;21.94;34.59;97729.31;5033576;28;20037;-49
2023/05/28 09:32:21;;;;;;;15.52;4.93;;;19.60;44.50;;;22.00;34.88;97728.38;5034554;28;20045;-47
2023/05/28 09:34:50;;;;;;;8.00;5.95;;;19.60;44.50;;;22.07;35.13;97731.00;5034704;28;20397;-47
2023/05/28 09:37:18;;;;;;;10.20;5.07;;;19.70;44.70;;;22.14;34.97;97728.97;5033351;28;20053;-47
2023/05/28 09:39:45;;;;;;;7.20;4.38;;;19.70;44.70;;;22.19;34.41;97719.09;5034491;28;20520;-46
2023/05/28 09:42:13;;;;;;;8.00;4.63;;;19.80;44.20;;;22.26;35.14;97720.91;5034696;28;20064;-36
2023/05/28 09:44:43;;;;;;;7.68;4.70;;;19.90;44.90;;;22.33;34.85;97719.75;5034550;28;20057;-36
2023/05/28 09:47:18;;;;;;;10.20;4.88;;;20.00;44.40;;;22.43;34.28;97724.59;5032895;28;20076;-36
2023/05/28 09:49:47;;;;;;;10.68;6.22;;;20.10;43.80;;;22.45;34.47;97718.91;5034493;28;20042;-36
2023/05/28 09:52:20;;;;;;;10.85;5.55;;;20.10;44.00;;;22.48;34.36;97715.72;5033985;28;20052;-36
2023/05/28 09:54:55;;;;;;;6.82;4.72;;;20.20;43.60;;;22.57;34.39;97714.31;5034506;28;20042;-36
2023/05/28 09:57:29;;;;;;;8.30;4.85;;;20.20;43.50;;;22.61;34.23;97719.03;5034211;28;20076;-37
2023/05/28 10:00:19;;;;;;;7.05;3.70;;;20.30;43.70;;;22.67;33.85;97719.97;5026847;28;20608;-37
2023/05/28 10:03:00;;;;;;;10.35;5.25;;;20.40;43.10;;;22.74;33.96;97712.53;5034724;28;20500;-37
2023/05/28 10:05:32;;;;;;;8.73;5.35;;;20.40;43.00;;;22.83;33.77;97728.44;5034655;28;20042;-37
2023/05/28 10:08:02;;;;;;;7.82;4.88;;;20.50;43.40;;;22.86;33.40;97715.22;5025434;28;20041;-37
2023/05/28 10:10:31;;;;;;;7.72;4.03;;;20.60;42.70;;;22.94;33.69;97720.28;5033202;28;20128;-37
2023/05/28 10:13:01;;;;;;;6.70;4.50;;;20.70;43.10;;;23.06;33.60;97714.03;5033798;28;20037;-37
2023/05/28 10:15:29;;;;;;;7.97;4.63;;;20.80;42.60;;;23.13;33.54;97717.44;5034814;28;20049;-37
2023/05/28 10:17:58;;;;;;;7.40;4.53;;;20.80;42.30;;;23.17;32.81;97714.00;5033555;28;20056;-37
2023/05/28 10:20:26;;;;;;;6.15;4.03;;;20.90;41.60;;;23.24;32.94;97716.56;5034216;28;20053;-37
2023/05/28 10:22:54;;;;;;;7.28;4.70;;;20.90;41.70;;;23.27;32.43;97710.66;5025821;28;20416;-37
2023/05/28 10:25:22;;;;;;;9.80;5.70;;;21.00;41.10;;;23.34;32.57;97710.50;5033652;28;20053;-37
2023/05/28 10:27:49;;;;;;;10.07;6.80;;;21.10;41.10;;;23.44;32.13;97712.59;5033278;28;20037;-37
2023/05/28 10:30:33;;;;;;;8.73;5.25;;;21.20;40.60;;;23.54;32.38;97721.78;5034032;28;20428;-36